Time;durP1;ratioP1;P1;durP2;ratioP2;P2;SDS_P1;SDS_P2;PMS_P1;PMS_P2;Temp;Humidity;BMP_temperature;BMP_pressure;BME280_temperature;BME280_humidity;BME280_pressure;Samples;Min_cycle;Max_cycle;Signal;HPM_P1;HPM_P2
2023/02/22 00:00:18;;;;;;;1.27;0.93;;;21.90;51.90;;;;;;5018981;28;20029;-65
2023/02/22 00:02:51;;;;;;;1.65;0.98;;;21.90;51.90;;;;;;5019443;28;20030;-66
2023/02/22 00:05:23;;;;;;;1.60;1.00;;;21.80;51.80;;;;;;5019387;28;20062;-65
2023/02/22 00:07:49;;;;;;;1.27;0.90;;;21.80;51.80;;;;;;5019296;28;20032;-65
2023/02/22 00:10:19;;;;;;;1.65;0.90;;;21.80;51.80;;;;;;5019670;28;20017;-65
2023/02/22 00:12:47;;;;;;;1.50;1.02;;;21.80;51.90;;;;;;5023373;28;20030;-65
2023/02/22 00:15:14;;;;;;;1.37;0.83;;;21.80;51.90;;;;;;5020649;28;20029;-66
2023/02/22 00:17:40;;;;;;;1.38;0.80;;;21.80;51.90;;;;;;5017833;28;20049;-67
2023/02/22 00:20:07;;;;;;;1.73;0.90;;;21.80;51.90;;;;;;5016659;28;20030;-64
2023/02/22 00:22:33;;;;;;;1.25;0.82;;;21.80;51.90;;;;;;5019493;28;20092;-64
2023/02/22 00:24:58;;;;;;;2.75;0.90;;;21.80;51.90;;;;;;5021780;28;20147;-65
2023/02/22 00:27:24;;;;;;;1.63;0.90;;;21.80;51.90;;;;;;5015651;28;20029;-65
2023/02/22 00:29:49;;;;;;;1.98;0.77;;;21.80;51.90;;;;;;5019842;28;20072;-64
2023/02/22 00:32:15;;;;;;;1.40;1.00;;;21.80;51.90;;;;;;5018716;28;20125;-65
2023/02/22 00:34:42;;;;;;;1.17;0.80;;;21.80;51.90;;;;;;5020153;28;20029;-64
2023/02/22 00:37:09;;;;;;;2.28;1.02;;;21.80;51.90;;;;;;5017310;28;20060;-65
2023/02/22 00:39:35;;;;;;;1.38;1.05;;;21.70;51.80;;;;;;5034846;28;20040;-64
2023/02/22 00:42:01;;;;;;;1.38;0.90;;;21.70;51.80;;;;;;5015574;28;20116;-65
2023/02/22 00:44:26;;;;;;;1.40;1.00;;;21.70;51.80;;;;;;5017871;28;20021;-65
2023/02/22 00:46:52;;;;;;;1.17;0.80;;;21.70;51.80;;;;;;5020166;28;20026;-65
2023/02/22 00:49:18;;;;;;;1.23;0.80;;;21.70;51.80;;;;;;5017156;28;20030;-64
2023/02/22 00:51:44;;;;;;;2.22;1.15;;;21.70;51.90;;;;;;5017882;28;20030;-65
2023/02/22 00:54:10;;;;;;;0.90;0.70;;;21.70;51.80;;;;;;5019168;28;20384;-65
2023/02/22 00:56:36;;;;;;;1.40;1.00;;;21.70;51.90;;;;;;5019469;28;20037;-64
2023/02/22 00:59:03;;;;;;;1.08;0.88;;;21.70;51.90;;;;;;5019305;28;20137;-65
2023/02/22 01:01:30;;;;;;;1.10;0.80;;;21.70;51.90;;;;;;5019347;28;20030;-64
2023/02/22 01:03:56;;;;;;;1.33;0.90;;;21.70;51.90;;;;;;5019774;28;20128;-64
2023/02/22 01:06:21;;;;;;;2.13;1.00;;;21.70;52.00;;;;;;5019409;28;20457;-64
2023/02/22 01:08:48;;;;;;;1.20;0.90;;;21.60;51.90;;;;;;5022372;28;20040;-65
2023/02/22 01:11:15;;;;;;;2.15;0.80;;;21.60;51.90;;;;;;5023102;28;20104;-64
2023/02/22 01:13:44;;;;;;;1.45;0.90;;;21.60;51.90;;;;;;5036504;28;20087;-65
2023/02/22 01:16:09;;;;;;;1.60;0.80;;;21.70;52.00;;;;;;5021383;28;20037;-67
2023/02/22 01:18:36;;;;;;;1.20;0.75;;;21.60;51.90;;;;;;5023633;28;20025;-65
2023/02/22 01:21:02;;;;;;;1.13;0.80;;;21.60;51.90;;;;;;5020639;28;20436;-64
2023/02/22 01:23:28;;;;;;;1.42;0.90;;;21.60;52.00;;;;;;5023070;28;20495;-66
2023/02/22 01:25:53;;;;;;;1.20;0.77;;;21.60;52.00;;;;;;5021147;28;20030;-66
2023/02/22 01:28:21;;;;;;;1.27;0.88;;;21.60;52.00;;;;;;5020553;28;20060;-65
2023/02/22 01:30:47;;;;;;;0.90;0.77;;;21.60;52.00;;;;;;5023532;28;20444;-65
2023/02/22 01:33:14;;;;;;;1.17;0.80;;;21.60;52.00;;;;;;5021311;28;20464;-66
2023/02/22 01:35:42;;;;;;;1.17;0.90;;;21.60;52.50;;;;;;5022562;28;20029;-66
2023/02/22 01:38:09;;;;;;;1.60;0.73;;;21.60;52.00;;;;;;5018586;28;20517;-64
2023/02/22 01:40:38;;;;;;;1.23;0.90;;;21.60;52.00;;;;;;5021793;28;20026;-66
2023/02/22 01:43:22;;;;;;;1.33;0.82;;;21.60;52.00;;;;;;5022780;28;20088;-65
2023/02/22 01:45:54;;;;;;;1.35;0.85;;;21.60;52.00;;;;;;5021203;28;20364;-65
2023/02/22 01:48:28;;;;;;;2.00;0.80;;;21.50;52.00;;;;;;5019333;28;20095;-65
2023/02/22 01:51:09;;;;;;;1.40;0.90;;;21.50;52.50;;;;;;5020763;28;20497;-65
2023/02/22 01:53:44;;;;;;;1.00;0.70;;;21.50;52.00;;;;;;5023900;28;20089;-65
2023/02/22 01:56:11;;;;;;;1.13;0.70;;;21.50;52.00;;;;;;5022209;28;20606;-65
2023/02/22 01:58:40;;;;;;;1.25;0.90;;;21.50;52.00;;;;;;5021537;28;20469;-66
2023/02/22 02:01:07;;;;;;;1.58;0.90;;;21.50;52.00;;;;;;5021684;28;20033;-66
2023/02/22 02:03:36;;;;;;;1.15;0.80;;;21.50;52.00;;;;;;5018519;28;20099;-65
2023/02/22 02:06:07;;;;;;;1.02;0.70;;;21.50;52.00;;;;;;5018010;28;20076;-66
2023/02/22 02:08:35;;;;;;;1.13;0.80;;;21.50;52.00;;;;;;5036037;28;20120;-65
2023/02/22 02:11:03;;;;;;;0.70;0.70;;;21.50;52.50;;;;;;5022919;28;20033;-65
2023/02/22 02:13:29;;;;;;;0.90;0.70;;;21.50;52.00;;;;;;5021223;28;20025;-65
2023/02/22 02:15:55;;;;;;;1.00;0.80;;;21.50;52.00;;;;;;5020399;28;20392;-65
2023/02/22 02:18:23;;;;;;;1.30;0.90;;;21.50;52.00;;;;;;5022392;28;20037;-65
2023/02/22 02:21:00;;;;;;;1.20;0.90;;;21.50;52.10;;;;;;5020989;28;20029;-65
2023/02/22 02:23:46;;;;;;;1.30;0.90;;;21.50;52.10;;;;;;5021855;28;20541;-65
2023/02/22 02:26:17;;;;;;;1.10;0.80;;;21.40;52.00;;;;;;5022496;28;20038;-66
2023/02/22 02:29:11;;;;;;;1.80;0.90;;;21.40;52.10;;;;;;5021135;28;20118;-66
2023/02/22 02:31:58;;;;;;;1.08;0.80;;;21.40;52.00;;;;;;5022747;28;20080;-65
2023/02/22 02:34:38;;;;;;;1.48;1.00;;;21.40;52.00;;;;;;5021133;28;20094;-66
2023/02/22 02:37:32;;;;;;;0.88;0.70;;;21.40;52.00;;;;;;5022304;28;20574;-65
2023/02/22 02:40:22;;;;;;;1.45;0.90;;;21.40;52.10;;;;;;5021746;28;20029;-65
2023/02/22 02:42:56;;;;;;;1.10;0.77;;;21.40;52.00;;;;;;5023629;28;20084;-66
2023/02/22 02:45:33;;;;;;;0.98;0.80;;;21.40;52.10;;;;;;5018335;28;20801;-65
2023/02/22 02:48:04;;;;;;;1.48;0.90;;;21.40;52.10;;;;;;5021244;28;20044;-65
2023/02/22 02:50:37;;;;;;;1.60;0.90;;;21.40;52.10;;;;;;5019348;28;20030;-65
2023/02/22 02:53:06;;;;;;;1.58;0.90;;;21.40;52.10;;;;;;5019194;28;20032;-65
2023/02/22 02:55:35;;;;;;;1.02;0.80;;;21.40;52.10;;;;;;5021437;28;20029;-65
2023/02/22 02:58:03;;;;;;;;;;;21.40;52.60;;;;;;5035979;28;20026;-65
2023/02/22 03:00:38;;;;;;;2.00;0.93;;;21.30;52.10;;;;;;5021681;28;19905;-64
2023/02/22 03:03:15;;;;;;;0.88;0.75;;;21.30;52.10;;;;;;5023446;28;20473;-64
2023/02/22 03:05:53;;;;;;;1.35;0.88;;;21.30;52.10;;;;;;5021008;28;20025;-65
2023/02/22 03:08:39;;;;;;;1.00;0.90;;;21.30;52.10;;;;;;5021397;28;20026;-65
2023/02/22 03:11:15;;;;;;;1.15;0.80;;;21.30;52.10;;;;;;5009431;28;20405;-65
2023/02/22 03:14:14;;;;;;;1.33;0.70;;;21.30;52.10;;;;;;5022202;28;20489;-64
2023/02/22 03:16:43;;;;;;;;;;;21.30;52.10;;;;;;5019137;28;20496;-66
2023/02/22 03:19:17;;;;;;;0.98;0.80;;;21.30;52.10;;;;;;5022564;28;20376;-65
2023/02/22 03:22:01;;;;;;;1.10;0.80;;;21.30;52.10;;;;;;5019984;28;20488;-65
2023/02/22 03:24:35;;;;;;;1.40;0.70;;;21.30;52.10;;;;;;5020906;28;20032;-65
2023/02/22 03:27:10;;;;;;;1.30;0.90;;;21.30;52.10;;;;;;5020674;28;20112;-65
2023/02/22 03:29:41;;;;;;;0.98;0.70;;;21.30;52.20;;;;;;5017457;28;20065;-65
2023/02/22 03:32:13;;;;;;;1.20;0.75;;;21.30;52.10;;;;;;5019685;28;20026;-65
2023/02/22 03:34:49;;;;;;;1.45;0.77;;;21.30;52.10;;;;;;5017658;28;20022;-65
2023/02/22 03:37:43;;;;;;;1.30;0.70;;;21.20;52.10;;;;;;5020530;28;20131;-65
2023/02/22 03:40:14;;;;;;;1.65;0.90;;;21.30;52.20;;;;;;5020744;28;20025;-66
2023/02/22 03:42:45;;;;;;;1.60;0.90;;;21.20;52.10;;;;;;5019232;28;20025;-66
2023/02/22 03:45:14;;;;;;;1.33;0.80;;;21.20;52.10;;;;;;5020863;28;20483;-66
2023/02/22 03:47:49;;;;;;;1.17;0.80;;;21.20;52.60;;;;;;5019644;28;20100;-65
2023/02/22 03:50:24;;;;;;;0.70;0.70;;;21.20;52.10;;;;;;5019754;28;20025;-66
2023/02/22 03:52:50;;;;;;;0.70;0.70;;;21.20;52.10;;;;;;5018557;28;20026;-66
2023/02/22 03:55:16;;;;;;;1.38;0.80;;;21.20;52.10;;;;;;5020514;28;20030;-65
2023/02/22 03:57:53;;;;;;;1.20;0.80;;;21.20;52.10;;;;;;5018347;28;20095;-64
2023/02/22 04:00:22;;;;;;;1.67;0.90;;;21.20;52.10;;;;;;5020244;28;20096;-65
2023/02/22 04:02:48;;;;;;;1.70;0.80;;;21.20;52.10;;;;;;5022454;28;20049;-65
2023/02/22 04:05:15;;;;;;;0.90;0.68;;;21.20;52.10;;;;;;5018605;28;20065;-64
2023/02/22 04:07:42;;;;;;;1.33;0.82;;;21.20;52.10;;;;;;5016383;28;20237;-65
2023/02/22 04:10:09;;;;;;;0.98;0.82;;;21.20;52.60;;;;;;5017728;28;20533;-65
2023/02/22 04:12:35;;;;;;;0.82;0.80;;;21.20;52.10;;;;;;5020304;28;20029;-65
2023/02/22 04:15:01;;;;;;;1.10;0.70;;;21.20;52.10;;;;;;5019006;28;20030;-65
2023/02/22 04:17:26;;;;;;;1.17;0.80;;;21.20;52.10;;;;;;5016749;28;20026;-65
2023/02/22 04:19:52;;;;;;;1.30;0.80;;;21.20;52.10;;;;;;5016929;28;20083;-66
2023/02/22 04:22:18;;;;;;;0.90;0.75;;;21.20;52.10;;;;;;5015306;28;20056;-66
2023/02/22 04:24:44;;;;;;;0.98;0.70;;;21.10;52.60;;;;;;5021244;28;20040;-66
2023/02/22 04:27:10;;;;;;;1.20;0.77;;;21.10;52.10;;;;;;5019492;28;20109;-66
2023/02/22 04:29:35;;;;;;;1.17;0.70;;;21.10;52.10;;;;;;5019834;28;20635;-65
2023/02/22 04:32:01;;;;;;;0.70;0.60;;;21.10;52.10;;;;;;5019341;28;20539;-65
2023/02/22 04:34:26;;;;;;;0.80;0.70;;;21.10;52.10;;;;;;5020267;28;20022;-66
2023/02/22 04:36:52;;;;;;;0.85;0.70;;;21.10;52.10;;;;;;5020507;28;20044;-66
2023/02/22 04:39:17;;;;;;;0.75;0.70;;;21.10;52.00;;;;;;5016561;28;20396;-65
2023/02/22 04:41:43;;;;;;;1.02;0.80;;;21.10;52.10;;;;;;5020915;28;20025;-66
2023/02/22 04:44:09;;;;;;;1.02;0.70;;;21.10;52.00;;;;;;5017932;28;20033;-67
2023/02/22 04:46:34;;;;;;;0.77;0.70;;;21.10;52.00;;;;;;5036913;28;20117;-66
2023/02/22 04:49:00;;;;;;;0.82;0.70;;;21.10;52.50;;;;;;5019974;28;20021;-66
2023/02/22 04:51:25;;;;;;;0.90;0.70;;;21.10;52.10;;;;;;5018673;28;20026;-65
2023/02/22 04:53:51;;;;;;;1.05;0.80;;;21.10;52.00;;;;;;5019322;28;20038;-67
2023/02/22 04:56:18;;;;;;;0.65;0.60;;;21.10;52.10;;;;;;5015269;28;20438;-67
2023/02/22 04:58:43;;;;;;;0.77;0.60;;;21.10;52.00;;;;;;5018645;28;20033;-66
2023/02/22 05:01:09;;;;;;;1.20;0.80;;;21.10;52.00;;;;;;5019532;28;20041;-67
2023/02/22 05:03:37;;;;;;;0.90;0.73;;;21.10;52.00;;;;;;5019351;28;20449;-67
2023/02/22 05:06:03;;;;;;;0.88;0.77;;;21.10;52.00;;;;;;5020322;28;20041;-67
2023/02/22 05:08:28;;;;;;;0.90;0.70;;;21.10;52.10;;;;;;5019833;28;20022;-66
2023/02/22 05:10:54;;;;;;;1.02;0.77;;;21.10;52.00;;;;;;5020625;28;20041;-66
2023/02/22 05:13:20;;;;;;;1.17;0.77;;;21.10;52.00;;;;;;5020143;28;20453;-66
2023/02/22 05:15:46;;;;;;;1.35;0.80;;;21.10;52.10;;;;;;5015867;28;20034;-66
2023/02/22 05:18:12;;;;;;;0.98;0.75;;;21.10;52.10;;;;;;5016372;28;20034;-66
2023/02/22 05:20:38;;;;;;;0.93;0.70;;;21.10;52.10;;;;;;5018169;28;20123;-66
2023/02/22 05:23:04;;;;;;;0.70;0.70;;;21.10;52.10;;;;;;5019953;28;20446;-67
2023/02/22 05:25:30;;;;;;;1.05;0.75;;;21.10;52.10;;;;;;5018225;28;20022;-66
2023/02/22 05:28:07;;;;;;;0.75;0.70;;;21.10;52.50;;;;;;5020479;28;20029;-65
2023/02/22 05:30:35;;;;;;;0.73;0.68;;;21.10;52.10;;;;;;5017860;28;20039;-65
2023/02/22 05:33:01;;;;;;;0.88;0.63;;;21.00;52.00;;;;;;5018946;28;20121;-67
2023/02/22 05:35:28;;;;;;;1.10;0.73;;;21.00;52.10;;;;;;5020050;28;20108;-66
2023/02/22 05:37:54;;;;;;;0.80;0.60;;;21.00;52.10;;;;;;5018590;28;20091;-67
2023/02/22 05:40:22;;;;;;;0.95;0.70;;;21.00;52.00;;;;;;5018906;28;20120;-67
2023/02/22 05:42:49;;;;;;;1.58;0.80;;;21.00;52.10;;;;;;5018988;28;20037;-67
2023/02/22 05:45:18;;;;;;;1.15;0.70;;;21.00;52.00;;;;;;5015991;28;20034;-67
2023/02/22 05:47:43;;;;;;;1.25;0.80;;;21.00;52.10;;;;;;5034640;28;20457;-69
2023/02/22 05:50:09;;;;;;;1.10;0.70;;;21.00;52.00;;;;;;5018569;28;20095;-66
2023/02/22 05:52:35;;;;;;;0.98;0.70;;;21.00;52.10;;;;;;5019172;28;20034;-67
2023/02/22 05:55:01;;;;;;;1.13;0.65;;;21.00;52.10;;;;;;5021669;28;20400;-65
2023/02/22 05:57:26;;;;;;;0.82;0.70;;;21.00;52.60;;;;;;5017965;28;20034;-66
2023/02/22 05:59:52;;;;;;;0.80;0.68;;;21.00;52.10;;;;;;5022553;28;20024;-67
2023/02/22 06:02:18;;;;;;;1.13;0.82;;;21.00;52.10;;;;;;5021574;28;20090;-67
2023/02/22 06:04:44;;;;;;;1.30;0.75;;;21.00;52.10;;;;;;5034877;28;20039;-67
2023/02/22 06:07:10;;;;;;;0.70;0.70;;;21.00;52.10;;;;;;5022334;28;20384;-65
2023/02/22 06:09:36;;;;;;;0.68;0.60;;;21.00;52.10;;;;;;5024064;28;20102;-66
2023/02/22 06:12:02;;;;;;;1.08;0.70;;;21.00;52.10;;;;;;5024725;28;20033;-66
2023/02/22 06:14:28;;;;;;;0.93;0.65;;;21.00;52.10;;;;;;5022390;28;20037;-66
2023/02/22 06:16:55;;;;;;;0.70;0.70;;;21.00;52.10;;;;;;5021646;28;20121;-65
2023/02/22 06:19:21;;;;;;;0.77;0.70;;;21.00;52.10;;;;;;5021326;28;20029;-66
2023/02/22 06:21:58;;;;;;;0.80;0.70;;;21.00;52.10;;;;;;5017837;28;20542;-67
2023/02/22 06:24:24;;;;;;;1.17;0.77;;;21.00;52.10;;;;;;5019296;28;20036;-65
2023/02/22 06:26:59;;;;;;;0.65;0.60;;;21.00;52.10;;;;;;5024826;28;20026;-65
2023/02/22 06:29:26;;;;;;;0.95;0.65;;;21.00;52.20;;;;;;5023471;28;20029;-66
2023/02/22 06:31:51;;;;;;;1.05;0.70;;;21.00;52.20;;;;;;5029129;28;20117;-65
2023/02/22 06:34:18;;;;;;;1.00;0.70;;;20.90;52.10;;;;;;5021485;28;20060;-65
2023/02/22 06:36:43;;;;;;;1.23;0.80;;;20.90;52.10;;;;;;5021793;28;20147;-65
2023/02/22 06:39:14;;;;;;;1.60;0.80;;;20.90;52.20;;;;;;5019858;28;20128;-65
2023/02/22 06:41:41;;;;;;;0.98;0.70;;;20.90;52.20;;;;;;5029266;28;20030;-66
2023/02/22 06:44:07;;;;;;;0.65;0.60;;;20.90;52.20;;;;;;5022941;28;20029;-66
2023/02/22 06:46:32;;;;;;;0.93;0.70;;;20.90;52.20;;;;;;5026017;28;20465;-66
2023/02/22 06:48:58;;;;;;;0.95;0.70;;;20.90;52.20;;;;;;5021252;28;20428;-67
2023/02/22 06:51:25;;;;;;;0.93;0.70;;;20.90;52.70;;;;;;5020585;28;20030;-65
2023/02/22 06:53:51;;;;;;;0.77;0.60;;;20.90;52.30;;;;;;5023071;28;20026;-66
2023/02/22 06:56:16;;;;;;;0.70;0.63;;;20.90;52.30;;;;;;5022393;28;20461;-66
2023/02/22 06:58:42;;;;;;;0.90;0.70;;;20.90;52.30;;;;;;5027744;28;20762;-66
2023/02/22 07:01:07;;;;;;;1.40;0.90;;;20.90;52.30;;;;;;5021156;28;20029;-65
2023/02/22 07:03:34;;;;;;;1.58;0.82;;;20.90;52.30;;;;;;5020921;28;20029;-65
2023/02/22 07:06:01;;;;;;;0.98;0.70;;;20.90;52.30;;;;;;5021156;28;20040;-66
2023/02/22 07:08:27;;;;;;;1.02;0.70;;;20.90;52.40;;;;;;5028361;28;20434;-66
2023/02/22 07:10:53;;;;;;;0.93;0.70;;;20.90;52.30;;;;;;5019487;28;20026;-67
2023/02/22 07:13:19;;;;;;;1.00;0.82;;;20.90;52.40;;;;;;5018794;28;20025;-66
2023/02/22 07:15:45;;;;;;;1.38;0.90;;;20.90;52.40;;;;;;5022067;28;20025;-65
2023/02/22 07:18:11;;;;;;;0.93;0.73;;;20.90;52.40;;;;;;5028126;28;20037;-64
2023/02/22 07:20:37;;;;;;;1.25;0.80;;;20.90;52.50;;;;;;5018961;28;20048;-65
2023/02/22 07:23:03;;;;;;;0.85;0.70;;;20.90;52.40;;;;;;5020146;28;20045;-65
2023/02/22 07:25:29;;;;;;;1.23;0.80;;;20.90;52.50;;;;;;5019249;28;20037;-65
2023/02/22 07:27:55;;;;;;;1.00;0.80;;;20.90;52.50;;;;;;5017590;28;20481;-65
2023/02/22 07:30:24;;;;;;;1.25;0.80;;;20.90;52.50;;;;;;5019561;28;20129;-65
2023/02/22 07:32:51;;;;;;;1.00;0.80;;;20.90;52.60;;;;;;5018922;28;20060;-66
2023/02/22 07:35:19;;;;;;;1.38;0.80;;;20.90;52.60;;;;;;5022667;28;20268;-65
2023/02/22 07:37:44;;;;;;;0.80;0.77;;;20.90;52.60;;;;;;5018291;28;20029;-65
2023/02/22 07:40:11;;;;;;;0.90;0.70;;;20.90;52.60;;;;;;5019889;28;20037;-65
2023/02/22 07:43:01;;;;;;;0.82;0.70;;;20.80;52.60;;;;;;5017799;28;20184;-64
2023/02/22 07:45:32;;;;;;;0.80;0.65;;;20.90;52.60;;;;;;5019826;28;20174;-64
2023/02/22 07:47:58;;;;;;;1.20;0.80;;;20.90;52.60;;;;;;5019705;28;20030;-65
2023/02/22 07:50:26;;;;;;;0.75;0.70;;;20.90;52.60;;;;;;5019030;28;20025;-65
2023/02/22 07:52:54;;;;;;;1.38;0.85;;;20.80;52.60;;;;;;5026677;28;20032;-66
2023/02/22 07:55:22;;;;;;;0.95;0.80;;;20.90;52.70;;;;;;5017856;28;20030;-66
2023/02/22 07:57:50;;;;;;;0.90;0.80;;;20.90;52.70;;;;;;5021280;28;20033;-65
2023/02/22 08:00:36;;;;;;;0.93;0.70;;;20.80;52.60;;;;;;5017196;28;20037;-65
2023/02/22 08:03:05;;;;;;;0.77;0.68;;;20.90;52.70;;;;;;5019138;28;20034;-65
2023/02/22 08:05:32;;;;;;;0.70;0.70;;;20.80;52.70;;;;;;5017462;28;20026;-64
2023/02/22 08:07:58;;;;;;;1.20;0.90;;;20.80;52.70;;;;;;5018540;28;20076;-65
2023/02/22 08:10:25;;;;;;;0.82;0.77;;;20.80;52.70;;;;;;5016892;28;20049;-64
2023/02/22 08:12:51;;;;;;;1.67;0.90;;;20.90;52.80;;;;;;5017961;28;20029;-64
2023/02/22 08:15:29;;;;;;;1.25;0.88;;;20.90;52.80;;;;;;5019184;28;20311;-64
2023/02/22 08:17:56;;;;;;;1.20;0.90;;;20.80;52.80;;;;;;5018748;28;20056;-65
2023/02/22 08:20:21;;;;;;;1.02;0.77;;;20.80;52.80;;;;;;5021404;28;20040;-64
2023/02/22 08:22:47;;;;;;;1.63;1.00;;;20.80;52.80;;;;;;5022372;28;20030;-65
2023/02/22 08:25:14;;;;;;;1.50;0.90;;;20.80;52.80;;;;;;5019805;28;20030;-65
2023/02/22 08:27:40;;;;;;;1.50;1.10;;;20.80;52.90;;;;;;5026318;28;20056;-64
2023/02/22 08:30:07;;;;;;;1.20;0.80;;;20.80;52.90;;;;;;5015791;28;20060;-67
2023/02/22 08:32:34;;;;;;;1.33;1.02;;;20.80;53.00;;;;;;5015869;28;20037;-66
2023/02/22 08:35:01;;;;;;;1.30;0.85;;;20.80;53.00;;;;;;5017023;28;20025;-65
2023/02/22 08:37:26;;;;;;;1.45;0.80;;;20.80;53.10;;;;;;5017457;28;20120;-65
2023/02/22 08:39:52;;;;;;;1.50;1.00;;;20.80;53.20;;;;;;5019984;28;20077;-65
2023/02/22 08:42:18;;;;;;;1.85;1.10;;;20.80;53.30;;;;;;5017659;28;20109;-65
2023/02/22 08:44:44;;;;;;;1.48;1.02;;;20.80;53.30;;;;;;5015915;28;20121;-65
2023/02/22 08:47:09;;;;;;;1.80;0.90;;;20.80;53.40;;;;;;5016751;28;20084;-65
2023/02/22 08:49:35;;;;;;;1.50;1.00;;;20.80;53.30;;;;;;5020257;28;20025;-65
2023/02/22 08:52:01;;;;;;;1.38;0.88;;;20.80;53.40;;;;;;5020998;28;20097;-65
2023/02/22 08:54:26;;;;;;;1.65;1.10;;;20.80;53.50;;;;;;5019431;28;20156;-65
2023/02/22 08:56:52;;;;;;;1.50;1.00;;;20.80;53.50;;;;;;5017834;28;20033;-66
2023/02/22 08:59:17;;;;;;;1.35;0.90;;;20.80;53.40;;;;;;5015912;28;20404;-65
2023/02/22 09:01:43;;;;;;;1.63;1.08;;;20.80;53.50;;;;;;5017754;28;20029;-65
2023/02/22 09:04:09;;;;;;;1.50;1.00;;;20.80;53.60;;;;;;5018493;28;20036;-65
2023/02/22 09:06:34;;;;;;;2.22;1.13;;;20.80;53.60;;;;;;5018244;28;20029;-65
2023/02/22 09:09:01;;;;;;;1.92;1.10;;;20.80;53.50;;;;;;5019616;28;20088;-65
2023/02/22 09:11:26;;;;;;;1.73;1.05;;;20.80;53.70;;;;;;5021146;28;20029;-66
2023/02/22 09:13:52;;;;;;;1.27;0.90;;;20.80;53.70;;;;;;5020025;28;20064;-66
2023/02/22 09:16:18;;;;;;;1.40;1.00;;;20.80;53.70;;;;;;5018867;28;20105;-65
2023/02/22 09:18:44;;;;;;;1.65;1.10;;;20.80;53.70;;;;;;5016493;28;20033;-66
2023/02/22 09:21:10;;;;;;;1.42;1.00;;;20.80;53.90;;;;;;5018307;28;20029;-66
2023/02/22 09:23:36;;;;;;;1.65;1.13;;;20.80;54.10;;;;;;5017407;28;20029;-66
2023/02/22 09:26:01;;;;;;;1.88;1.20;;;20.80;53.90;;;;;;5024094;28;20038;-66
2023/02/22 09:28:27;;;;;;;1.38;1.00;;;20.80;53.90;;;;;;5023387;28;20021;-65
2023/02/22 09:30:53;;;;;;;1.73;1.00;;;20.70;53.80;;;;;;5020383;28;20452;-66
2023/02/22 09:33:20;;;;;;;2.97;1.20;;;20.80;53.90;;;;;;5023192;28;20029;-66
2023/02/22 09:35:48;;;;;;;1.42;1.10;;;20.70;54.00;;;;;;5020527;28;20029;-65
2023/02/22 09:38:17;;;;;;;1.95;1.10;;;20.80;54.00;;;;;;5022617;28;20144;-67
2023/02/22 09:40:49;;;;;;;1.48;1.00;;;20.80;54.00;;;;;;5021867;28;20688;-66
2023/02/22 09:43:26;;;;;;;1.98;1.25;;;20.80;54.00;;;;;;5019137;28;20029;-65
2023/02/22 09:46:12;;;;;;;1.95;1.05;;;20.80;54.00;;;;;;5022904;28;20037;-66
2023/02/22 09:48:56;;;;;;;1.10;1.00;;;20.80;54.20;;;;;;5022743;28;20033;-68
2023/02/22 09:51:29;;;;;;;1.77;1.10;;;20.80;54.80;;;;;;5023186;28;20111;-67
2023/02/22 09:53:59;;;;;;;1.75;1.00;;;20.80;54.40;;;;;;5021274;28;20025;-66
2023/02/22 09:56:28;;;;;;;1.60;1.10;;;20.80;54.30;;;;;;5021689;28;20028;-67
2023/02/22 09:58:59;;;;;;;1.98;1.30;;;20.80;54.20;;;;;;5021755;28;20025;-66
2023/02/22 10:01:44;;;;;;;2.67;1.15;;;20.80;54.30;;;;;;5021476;28;20144;-66
2023/02/22 10:04:21;;;;;;;2.03;1.00;;;20.80;54.10;;;;;;5022197;28;20050;-66
2023/02/22 10:07:04;;;;;;;1.80;1.10;;;20.80;54.00;;;;;;5021196;28;20433;-65
2023/02/22 10:09:36;;;;;;;1.10;0.90;;;20.80;54.00;;;;;;5014453;28;20533;-66
2023/02/22 10:12:26;;;;;;;1.70;1.10;;;20.80;54.00;;;;;;5018416;28;20026;-67
2023/02/22 10:15:16;;;;;;;2.40;1.20;;;20.80;53.90;;;;;;5011310;28;20090;-67
2023/02/22 10:18:15;;;;;;;2.13;1.20;;;20.80;53.80;;;;;;5021615;28;20527;-67
2023/02/22 10:20:56;;;;;;;3.95;1.40;;;20.70;53.80;;;;;;5019072;28;20121;-66
2023/02/22 10:23:52;;;;;;;2.20;1.20;;;20.80;53.80;;;;;;5022941;28;20128;-66
2023/02/22 10:26:25;;;;;;;2.33;1.20;;;20.80;53.70;;;;;;5018849;28;20029;-67
2023/02/22 10:28:51;;;;;;;2.35;1.30;;;20.80;53.70;;;;;;5022153;28;20064;-66
2023/02/22 10:31:28;;;;;;;1.98;1.20;;;20.80;53.60;;;;;;5020924;28;20021;-67
2023/02/22 10:34:11;;;;;;;1.95;1.30;;;20.80;53.60;;;;;;5023192;28;20489;-67
2023/02/22 10:36:38;;;;;;;1.95;1.30;;;20.80;53.50;;;;;;5017010;28;20108;-66
2023/02/22 10:39:36;;;;;;;2.85;1.42;;;20.80;53.50;;;;;;5021325;28;20029;-66
2023/02/22 10:42:08;;;;;;;2.17;1.40;;;20.80;53.50;;;;;;5034567;28;20057;-66
2023/02/22 10:44:38;;;;;;;2.88;1.67;;;20.80;53.50;;;;;;5024712;28;20030;-66
2023/02/22 10:47:07;;;;;;;1.80;1.20;;;20.80;53.50;;;;;;5019446;28;20033;-66
2023/02/22 10:49:59;;;;;;;2.22;1.48;;;20.80;53.40;;;;;;5021246;28;20164;-67
2023/02/22 10:52:32;;;;;;;2.13;1.20;;;20.80;53.40;;;;;;5021449;28;20519;-67
2023/02/22 10:55:00;;;;;;;2.17;1.23;;;20.80;53.50;;;;;;5021183;28;20053;-67
2023/02/22 10:57:32;;;;;;;1.98;1.40;;;20.70;53.40;;;;;;5021362;28;20030;-67
2023/02/22 11:00:18;;;;;;;2.38;1.40;;;20.80;53.60;;;;;;5017882;28;20046;-66
2023/02/22 11:02:56;;;;;;;2.20;1.38;;;20.80;53.60;;;;;;5020764;28;20549;-67
2023/02/22 11:05:29;;;;;;;2.08;1.42;;;20.80;53.60;;;;;;5019460;28;20446;-67
2023/02/22 11:08:19;;;;;;;1.83;1.17;;;20.80;53.60;;;;;;5018098;28;20036;-66
2023/02/22 11:10:46;;;;;;;1.85;1.20;;;20.80;53.60;;;;;;5018490;28;20025;-66
2023/02/22 11:13:28;;;;;;;2.83;1.30;;;20.70;53.50;;;;;;5020258;28;20351;-67
2023/02/22 11:15:57;;;;;;;2.55;1.50;;;20.80;53.50;;;;;;5022951;28;20105;-65
2023/02/22 11:18:32;;;;;;;2.35;1.45;;;20.80;53.60;;;;;;5021235;28;20385;-66
2023/02/22 11:21:09;;;;;;;2.03;1.23;;;20.80;53.60;;;;;;5019391;28;20040;-67
2023/02/22 11:23:37;;;;;;;2.88;1.30;;;20.80;53.50;;;;;;5021691;28;20388;-66
2023/02/22 11:26:06;;;;;;;2.65;1.42;;;20.70;53.50;;;;;;5018962;28;20018;-67
2023/02/22 11:28:32;;;;;;;1.52;1.23;;;20.80;53.50;;;;;;5018993;28;20051;-67
2023/02/22 11:31:12;;;;;;;2.33;1.42;;;20.80;53.60;;;;;;5020378;28;20570;-67
2023/02/22 11:33:38;;;;;;;2.35;1.35;;;20.80;53.50;;;;;;5020802;28;20026;-66
2023/02/22 11:36:08;;;;;;;1.77;1.20;;;20.80;53.50;;;;;;5021469;28;20025;-67
2023/02/22 11:38:38;;;;;;;1.90;1.20;;;20.80;53.50;;;;;;5021311;28;20108;-67
2023/02/22 11:41:15;;;;;;;2.65;1.40;;;20.80;53.90;;;;;;5021135;28;20485;-65
2023/02/22 11:43:46;;;;;;;2.10;1.27;;;20.80;53.80;;;;;;5021027;28;20033;-65
2023/02/22 11:46:17;;;;;;;2.22;1.42;;;20.80;54.30;;;;;;5018256;28;20085;-66
2023/02/22 11:49:07;;;;;;;2.05;1.33;;;20.80;54.30;;;;;;5015518;28;20045;-66
2023/02/22 11:51:39;;;;;;;1.83;1.23;;;20.80;54.10;;;;;;5019006;28;20014;-67
2023/02/22 11:54:24;;;;;;;1.77;1.10;;;20.80;54.30;;;;;;5019506;28;20485;-68
2023/02/22 11:56:54;;;;;;;2.83;1.15;;;20.80;54.20;;;;;;5017684;28;20014;-66
2023/02/22 11:59:35;;;;;;;1.95;1.30;;;20.80;54.30;;;;;;5020473;28;20041;-66
2023/02/22 12:02:25;;;;;;;1.65;1.17;;;20.80;54.30;;;;;;5021238;28;20068;-66
2023/02/22 12:05:06;;;;;;;1.60;1.20;;;20.90;54.40;;;;;;5021965;28;20151;-66
2023/02/22 12:07:47;;;;;;;2.67;1.38;;;20.80;54.30;;;;;;5021646;28;20111;-66
2023/02/22 12:10:23;;;;;;;1.88;1.15;;;20.90;54.50;;;;;;5018561;28;20036;-67
2023/02/22 12:13:15;;;;;;;1.80;1.10;;;20.90;54.40;;;;;;5023156;28;21019;-67
2023/02/22 12:16:05;;;;;;;2.60;1.30;;;20.90;54.40;;;;;;5019124;28;20564;-67
2023/02/22 12:18:52;;;;;;;2.75;1.30;;;20.90;54.50;;;;;;5020343;28;20029;-66
2023/02/22 12:21:21;;;;;;;2.03;1.23;;;20.90;54.50;;;;;;5018220;28;20065;-65
2023/02/22 12:23:58;;;;;;;1.83;1.10;;;20.90;54.50;;;;;;5016824;28;20034;-66
2023/02/22 12:26:35;;;;;;;2.15;1.30;;;20.90;55.00;;;;;;5020589;28;20397;-66
2023/02/22 12:29:11;;;;;;;2.42;1.10;;;20.90;54.50;;;;;;5019287;28;20041;-67
2023/02/22 12:31:49;;;;;;;1.70;1.10;;;20.90;54.50;;;;;;5020521;28;20021;-66
2023/02/22 12:34:31;;;;;;;1.60;1.10;;;20.90;54.50;;;;;;5017484;28;20033;-66
2023/02/22 12:37:13;;;;;;;2.38;1.38;;;21.00;54.60;;;;;;5021002;28;20465;-67
2023/02/22 12:39:57;;;;;;;1.75;1.10;;;20.90;55.00;;;;;;5019392;28;20397;-67
2023/02/22 12:42:41;;;;;;;2.20;1.33;;;21.00;54.50;;;;;;5019788;28;20140;-66
2023/02/22 12:45:23;;;;;;;1.60;1.15;;;21.00;54.60;;;;;;5016522;28;20030;-67
2023/02/22 12:47:59;;;;;;;4.30;1.20;;;21.00;54.60;;;;;;5020115;28;20038;-66
2023/02/22 12:50:33;;;;;;;2.10;1.30;;;21.00;54.60;;;;;;5019374;28;20136;-67
2023/02/22 12:53:18;;;;;;;3.58;1.30;;;21.00;54.60;;;;;;5019718;28;20404;-67
2023/02/22 12:55:53;;;;;;;2.00;1.20;;;21.00;54.60;;;;;;5019892;28;20022;-67
2023/02/22 12:58:25;;;;;;;1.77;1.15;;;21.00;54.70;;;;;;5019811;28;20037;-67
2023/02/22 13:01:00;;;;;;;1.70;1.13;;;21.00;54.60;;;;;;5024363;28;20568;-67
2023/02/22 13:03:29;;;;;;;1.98;1.30;;;21.00;54.50;;;;;;5024626;28;20454;-67
2023/02/22 13:06:39;;;;;;;1.52;0.98;;;21.00;54.60;;;;;;5023195;28;20098;-67